ADDS TAF Board (Experimental) INFO Settings
IDs: Format: Expanded Condensed

KDFW - Dallas-Ft Worth Intl, TX, US

Issued at 0857 UTC 02 Sep 2015
Updated at: 1032 UTC 02 Sep 2015
Time0953Z 02/11Z 02/12Z 02/13Z 02/14Z 02/15Z 02/16Z 02/17Z 02/18Z 02/19Z 02/20Z 02/21Z 02/22Z 02/23Z
Type OBS PRVL PRVL PRVL PRVL PRVL PRVL PRVL PRVL PRVL PRVL PRVL PRVL PRVL
VIS 10 >6 >6 >6 >6 >6 >6 >6 >6 >6 >6 >6 >6 >6
CIG -- -- -- -- -- -- -- -- -- -- -- -- -- --
Cover CLR SCT SCT SCT SCT SCT SCT SCT SCT SCT SCT SCT SCT SCT
FltCat VFR VFR VFR VFR VFR VFR VFR VFR VFR VFR VFR VFR VFR VFR
WX -- -- -- -- -- -- -- -- -- -- -- -- -- --
WDir 190 170 170 170 170 170 170 170 170 170 170 170 170 170
WSpd 8 12 12 12 12 12 12 12 12 12 12 12 12 12
WGst -- -- -- -- -- -- -- -- -- -- -- -- -- --
R13/31
XWnd -7 -7 -7 -7 -7 -7 -7 -7 -7 -7 -7 -7 -7 -7
HWnd 5 10 10 10 10 10 10 10 10 10 10 10 10 10
R17/35
XWnd -1 2 2 2 2 2 2 2 2 2 2 2 2 2
HWnd 8 12 12 12 12 12 12 12 12 12 12 12 12 12
R18/36
XWnd -1 2 2 2 2 2 2 2 2 2 2 2 2 2
HWnd 8 12 12 12 12 12 12 12 12 12 12 12 12 12

NOTE: TEMPO conditions in [brackets]. Keep in mind TEMPO conditions might be better (lower impact) than prevailing conditions.

Raw TAF
KDFW 020857Z 0209/0312 17012KT P6SM SCT070

Raw METAR
KDFW 020953Z 19008KT 10SM CLR 24/19 A3003 RMK AO2 SLP159 T02390194
KDFW 020853Z 20013KT 10SM CLR 25/19 A3003 RMK AO2 SLP160 T02500194 55001
KDFW 020753Z 18007KT 10SM CLR 25/19 A3003 RMK AO2 SLP160 T02500194

METAR Board
Radar Display
Forecast Discussion

TAF Board Legend

Potential Impact
Threat None Slight Moderate High
Visibility (sm) ≥5.1 5.1>X≥3 3>X≥1 <1
Ceiling (100 ft) ≥30.1 30.1>X≥10 10>X≥5 <5
Wind Speed (kt) <10 10≤X<20 20≤X<30 ≥30
Wind Gust (kt) <15 15≤X<25 25≤X<35 ≥35
Weather No Wx Reported VCTS,-TS,-FZRA,SN TS,FZRA +TS,+FZRA,+SN